Time;durP1;ratioP1;P1;durP2;ratioP2;P2;SDS_P1;SDS_P2;PMS_P1;PMS_P2;Temp;Humidity;BMP_temperature;BMP_pressure;BME280_temperature;BME280_humidity;BME280_pressure;Samples;Min_cycle;Max_cycle;Signal;HPM_P1;HPM_P2
2022/03/04 00:01:56;;;;;;;14.63;4.28;;;;;;;;;;5056824;28;20062;-72
2022/03/04 00:04:22;;;;;;;17.35;3.60;;;;;;;;;;5056622;28;20045;-70
2022/03/04 00:06:48;;;;;;;13.68;3.33;;;;;;;;;;5056755;28;20029;-69
2022/03/04 00:09:15;;;;;;;18.30;3.38;;;;;;;;;;5057316;28;20564;-68
2022/03/04 00:11:41;;;;;;;23.73;3.35;;;;;;;;;;5056665;28;20100;-70
2022/03/04 00:14:08;;;;;;;22.85;4.93;;;;;;;;;;5057178;28;20033;-69
2022/03/04 00:16:34;;;;;;;13.65;3.25;;;;;;;;;;5056613;28;20055;-70
2022/03/04 00:19:07;;;;;;;16.45;3.97;;;;;;;;;;5056534;28;20029;-70
2022/03/04 00:21:40;;;;;;;19.58;3.60;;;;;;;;;;5056548;28;20029;-70
2022/03/04 00:24:07;;;;;;;19.52;4.18;;;;;;;;;;5056998;28;20108;-67
2022/03/04 00:26:33;;;;;;;14.70;3.38;;;;;;;;;;5056983;28;20025;-68
2022/03/04 00:28:59;;;;;;;17.55;3.90;;;;;;;;;;5056397;28;20029;-70
2022/03/04 00:31:26;;;;;;;14.23;3.03;;;;;;;;;;5056265;28;20017;-70
2022/03/04 00:33:52;;;;;;;14.27;3.70;;;;;;;;;;5056265;28;20029;-69
2022/03/04 00:36:22;;;;;;;15.20;4.25;;;;;;;;;;5056275;28;20500;-68
2022/03/04 00:38:48;;;;;;;18.00;3.45;;;;;;;;;;5038279;28;20393;-67
2022/03/04 00:41:14;;;;;;;20.33;3.60;;;;;;;;;;5056408;28;20021;-68
2022/03/04 00:43:43;;;;;;;18.60;3.13;;;;;;;;;;5056080;28;20036;-69
2022/03/04 00:46:09;;;;;;;15.52;3.65;;;;;;;;;;5056019;28;20028;-70
2022/03/04 00:48:35;;;;;;;16.48;3.90;;;;;;;;;;5056036;28;20043;-68
2022/03/04 00:51:01;;;;;;;14.77;3.40;;;;;;;;;;5055940;28;20478;-67
2022/03/04 00:53:27;;;;;;;11.38;3.45;;;;;;;;;;5055064;28;20036;-70
2022/03/04 00:55:53;;;;;;;12.18;2.67;;;;;;;;;;5055860;28;20017;-69
2022/03/04 00:58:19;;;;;;;15.38;3.60;;;;;;;;;;5055800;28;20078;-69
2022/03/04 01:00:45;;;;;;;18.45;3.30;;;;;;;;;;5055750;28;20071;-70
2022/03/04 01:03:11;;;;;;;15.60;3.35;;;;;;;;;;5055989;28;20056;-69
2022/03/04 01:05:38;;;;;;;11.80;3.22;;;;;;;;;;5055305;28;20084;-67
2022/03/04 01:08:04;;;;;;;15.60;3.00;;;;;;;;;;5055923;28;20025;-68
2022/03/04 01:10:30;;;;;;;20.23;4.28;;;;;;;;;;5055883;28;20447;-69
2022/03/04 01:12:56;;;;;;;9.07;2.58;;;;;;;;;;5055401;28;20032;-68
2022/03/04 01:15:22;;;;;;;20.30;3.47;;;;;;;;;;5055466;28;20021;-68
2022/03/04 01:17:48;;;;;;;17.10;3.45;;;;;;;;;;5055414;28;20026;-67
2022/03/04 01:20:14;;;;;;;14.80;2.80;;;;;;;;;;5055353;28;20147;-68
2022/03/04 01:22:40;;;;;;;15.65;2.92;;;;;;;;;;5055577;28;20043;-69
2022/03/04 01:25:07;;;;;;;12.50;3.72;;;;;;;;;;5055574;28;20032;-70
2022/03/04 01:27:33;;;;;;;12.55;2.90;;;;;;;;;;5055543;28;20033;-71
2022/03/04 01:29:59;;;;;;;12.07;2.30;;;;;;;;;;5055474;28;20025;-67
2022/03/04 01:32:25;;;;;;;14.20;2.67;;;;;;;;;;5055120;28;20036;-67
2022/03/04 01:34:51;;;;;;;11.50;1.98;;;;;;;;;;5055128;28;20101;-66
2022/03/04 01:37:17;;;;;;;15.32;2.70;;;;;;;;;;5055081;28;20112;-69
2022/03/04 01:39:43;;;;;;;16.25;3.28;;;;;;;;;;5055325;28;20025;-69
2022/03/04 01:42:09;;;;;;;16.98;3.03;;;;;;;;;;5055019;28;20075;-68
2022/03/04 01:44:35;;;;;;;17.65;3.85;;;;;;;;;;5054936;28;20040;-69
2022/03/04 01:47:02;;;;;;;12.75;2.45;;;;;;;;;;5054899;28;20040;-69
2022/03/04 01:49:28;;;;;;;14.05;2.65;;;;;;;;;;5055184;28;20041;-68
2022/03/04 01:51:55;;;;;;;16.63;2.80;;;;;;;;;;5054715;28;20025;-67
2022/03/04 01:54:21;;;;;;;10.93;2.03;;;;;;;;;;5054669;28;20424;-68
2022/03/04 01:56:47;;;;;;;17.67;3.75;;;;;;;;;;5054961;28;20031;-69
2022/03/04 01:59:13;;;;;;;15.98;3.30;;;;;;;;;;5054674;28;20099;-68
2022/03/04 02:01:39;;;;;;;17.77;2.72;;;;;;;;;;5054626;28;20028;-69
2022/03/04 02:04:05;;;;;;;14.52;2.45;;;;;;;;;;5054455;28;20045;-68
2022/03/04 02:06:31;;;;;;;21.20;3.88;;;;;;;;;;5054658;28;20473;-70
2022/03/04 02:08:57;;;;;;;11.25;2.90;;;;;;;;;;5054469;28;20029;-69
2022/03/04 02:11:23;;;;;;;13.82;2.97;;;;;;;;;;5054651;28;20029;-67
2022/03/04 02:13:48;;;;;;;14.00;2.17;;;;;;;;;;5054641;28;20432;-68
2022/03/04 02:16:35;;;;;;;11.80;3.17;;;;;;;;;;5054334;28;20071;-68
2022/03/04 02:19:01;;;;;;;14.35;2.63;;;;;;;;;;5054196;28;20025;-69
2022/03/04 02:21:27;;;;;;;13.07;2.95;;;;;;;;;;5054230;28;20031;-67
2022/03/04 02:23:53;;;;;;;15.38;2.92;;;;;;;;;;5054720;28;20108;-69
2022/03/04 02:26:19;;;;;;;18.90;3.40;;;;;;;;;;5054383;28;20426;-70
2022/03/04 02:28:45;;;;;;;14.30;2.65;;;;;;;;;;5054377;28;20052;-69
2022/03/04 02:31:19;;;;;;;16.73;2.55;;;;;;;;;;5054083;28;20405;-69
2022/03/04 02:33:46;;;;;;;15.18;2.60;;;;;;;;;;5054280;28;20037;-68
2022/03/04 02:36:13;;;;;;;16.10;3.03;;;;;;;;;;5054498;28;20435;-68
2022/03/04 02:38:39;;;;;;;10.05;2.22;;;;;;;;;;5053826;28;20465;-69
2022/03/04 02:41:05;;;;;;;11.90;2.25;;;;;;;;;;5053875;28;20035;-70
2022/03/04 02:43:31;;;;;;;14.48;2.65;;;;;;;;;;5054381;28;20025;-68
2022/03/04 02:45:57;;;;;;;12.30;2.50;;;;;;;;;;5053763;28;20033;-69
2022/03/04 02:48:23;;;;;;;13.00;2.47;;;;;;;;;;5035848;28;20044;-69
2022/03/04 02:50:49;;;;;;;10.15;2.42;;;;;;;;;;5053661;28;20482;-70
2022/03/04 02:53:15;;;;;;;14.27;2.83;;;;;;;;;;5053871;28;20493;-67
2022/03/04 02:55:41;;;;;;;15.32;3.47;;;;;;;;;;5053624;28;20437;-67
2022/03/04 02:58:07;;;;;;;12.60;2.78;;;;;;;;;;5053571;28;20075;-68
2022/03/04 03:00:34;;;;;;;15.07;2.80;;;;;;;;;;5053846;28;20017;-67
2022/03/04 03:03:00;;;;;;;8.73;2.70;;;;;;;;;;5053790;28;20112;-67
2022/03/04 03:05:26;;;;;;;16.52;2.42;;;;;;;;;;5053307;28;20055;-69
2022/03/04 03:07:52;;;;;;;15.48;4.18;;;;;;;;;;5053976;28;20521;-67
2022/03/04 03:10:18;;;;;;;12.48;3.70;;;;;;;;;;5053392;28;20025;-67
2022/03/04 03:12:44;;;;;;;10.70;2.38;;;;;;;;;;5053835;28;20381;-67
2022/03/04 03:15:11;;;;;;;16.50;2.70;;;;;;;;;;5053607;28;20508;-70
2022/03/04 03:17:37;;;;;;;16.05;2.58;;;;;;;;;;5052567;28;20064;-69
2022/03/04 03:20:04;;;;;;;18.63;3.80;;;;;;;;;;5053535;28;20466;-68
2022/03/04 03:22:30;;;;;;;14.30;2.95;;;;;;;;;;5053233;28;20146;-70
2022/03/04 03:24:56;;;;;;;15.68;2.83;;;;;;;;;;5053763;28;20477;-69
2022/03/04 03:27:23;;;;;;;13.50;3.25;;;;;;;;;;5053161;28;20032;-67
2022/03/04 03:29:49;;;;;;;15.98;2.67;;;;;;;;;;5053160;28;20021;-66
2022/03/04 03:32:15;;;;;;;17.30;2.90;;;;;;;;;;5053366;28;20461;-70
2022/03/04 03:34:41;;;;;;;10.10;2.40;;;;;;;;;;5053420;28;20496;-68
2022/03/04 03:37:09;;;;;;;13.70;2.90;;;;;;;;;;5053078;28;20497;-68
2022/03/04 03:39:35;;;;;;;8.40;2.08;;;;;;;;;;5035213;28;20516;-68
2022/03/04 03:42:02;;;;;;;12.68;2.17;;;;;;;;;;5053262;28;20393;-67
2022/03/04 03:44:28;;;;;;;9.30;2.58;;;;;;;;;;5053013;28;20063;-69
2022/03/04 03:46:54;;;;;;;12.23;3.08;;;;;;;;;;5053031;28;20036;-68
2022/03/04 03:49:20;;;;;;;20.83;3.15;;;;;;;;;;5053187;28;20024;-70
2022/03/04 03:51:46;;;;;;;14.07;2.65;;;;;;;;;;5052872;28;20056;-69
2022/03/04 03:54:12;;;;;;;19.13;3.38;;;;;;;;;;5053117;28;20473;-67
2022/03/04 03:56:38;;;;;;;10.18;2.65;;;;;;;;;;5052914;28;20028;-70
2022/03/04 03:59:04;;;;;;;8.75;2.50;;;;;;;;;;5052926;28;20013;-68
2022/03/04 04:01:30;;;;;;;13.32;3.28;;;;;;;;;;5052874;28;20063;-68
2022/03/04 04:03:56;;;;;;;14.45;2.97;;;;;;;;;;5052965;28;20021;-69
2022/03/04 04:06:22;;;;;;;12.70;2.88;;;;;;;;;;5053151;28;20036;-69
2022/03/04 04:08:48;;;;;;;9.65;2.45;;;;;;;;;;5053065;28;20366;-68
2022/03/04 04:11:14;;;;;;;16.52;3.65;;;;;;;;;;5052802;28;20032;-67
2022/03/04 04:13:40;;;;;;;10.70;2.55;;;;;;;;;;5052666;28;20025;-70
2022/03/04 04:16:06;;;;;;;12.98;2.50;;;;;;;;;;5052755;28;20031;-69
2022/03/04 04:18:32;;;;;;;16.48;2.53;;;;;;;;;;5052944;28;20040;-67
2022/03/04 04:20:58;;;;;;;12.15;2.15;;;;;;;;;;5052956;28;20028;-69
2022/03/04 04:23:24;;;;;;;12.18;2.55;;;;;;;;;;5052918;28;20393;-69
2022/03/04 04:25:50;;;;;;;14.48;2.95;;;;;;;;;;5052588;28;20036;-68
2022/03/04 04:28:16;;;;;;;17.38;2.45;;;;;;;;;;5054231;28;20048;-68
2022/03/04 04:30:42;;;;;;;9.07;2.03;;;;;;;;;;5056335;28;20025;-70
2022/03/04 04:33:08;;;;;;;15.60;3.00;;;;;;;;;;5056757;28;20033;-69
2022/03/04 04:35:34;;;;;;;13.60;3.53;;;;;;;;;;5056537;28;20099;-68
2022/03/04 04:38:00;;;;;;;14.93;2.97;;;;;;;;;;5056234;28;20021;-68
2022/03/04 04:40:26;;;;;;;14.32;2.67;;;;;;;;;;5056207;28;20397;-69
2022/03/04 04:42:52;;;;;;;11.73;2.67;;;;;;;;;;5056415;28;20469;-69
2022/03/04 04:45:18;;;;;;;15.07;2.63;;;;;;;;;;5056116;28;20036;-69
2022/03/04 04:47:44;;;;;;;10.85;2.95;;;;;;;;;;5056585;28;20029;-69
2022/03/04 04:50:12;;;;;;;16.10;2.78;;;;;;;;;;5056304;28;20029;-70
2022/03/04 04:52:38;;;;;;;17.17;2.95;;;;;;;;;;5056216;28;20053;-68
2022/03/04 04:55:04;;;;;;;13.20;2.63;;;;;;;;;;5055857;28;20028;-68
2022/03/04 04:57:30;;;;;;;12.85;2.78;;;;;;;;;;5055869;28;20056;-68
2022/03/04 04:59:56;;;;;;;12.15;2.75;;;;;;;;;;5055831;28;20029;-67
2022/03/04 05:02:22;;;;;;;13.05;2.78;;;;;;;;;;5055782;28;20424;-68
2022/03/04 05:04:48;;;;;;;13.27;2.75;;;;;;;;;;5055556;28;20049;-69
2022/03/04 05:07:14;;;;;;;19.55;2.97;;;;;;;;;;5055707;28;20029;-70
2022/03/04 05:09:40;;;;;;;8.63;2.15;;;;;;;;;;5055637;28;20033;-70
2022/03/04 05:12:07;;;;;;;10.48;2.78;;;;;;;;;;5055523;28;20022;-68
2022/03/04 05:14:33;;;;;;;15.30;3.30;;;;;;;;;;5055536;28;20035;-70
2022/03/04 05:16:59;;;;;;;16.15;3.58;;;;;;;;;;5055469;28;20099;-68
2022/03/04 05:19:25;;;;;;;23.40;2.80;;;;;;;;;;5055444;28;20053;-68
2022/03/04 05:21:51;;;;;;;11.65;3.53;;;;;;;;;;5055435;28;20492;-69
2022/03/04 05:24:17;;;;;;;14.40;3.13;;;;;;;;;;5055389;28;20027;-68
2022/03/04 05:26:43;;;;;;;15.52;3.40;;;;;;;;;;5055275;28;20021;-69
2022/03/04 05:29:10;;;;;;;13.00;3.25;;;;;;;;;;5055288;28;20025;-70
2022/03/04 05:31:39;;;;;;;19.85;4.13;;;;;;;;;;5055382;28;20025;-68
2022/03/04 05:34:06;;;;;;;16.10;2.92;;;;;;;;;;5055207;28;20053;-69
2022/03/04 05:36:32;;;;;;;11.95;3.17;;;;;;;;;;5055434;28;20099;-68
2022/03/04 05:38:59;;;;;;;16.38;3.30;;;;;;;;;;5054702;28;20029;-67
2022/03/04 05:41:25;;;;;;;18.23;3.17;;;;;;;;;;5054722;28;20024;-68
2022/03/04 05:43:51;;;;;;;13.27;3.63;;;;;;;;;;5055279;28;20032;-66
2022/03/04 05:46:17;;;;;;;15.82;3.17;;;;;;;;;;5054931;28;20051;-68
2022/03/04 05:48:43;;;;;;;20.90;3.88;;;;;;;;;;5054886;28;20021;-70
2022/03/04 05:51:10;;;;;;;13.52;2.78;;;;;;;;;;5055150;28;20476;-67
2022/03/04 05:53:36;;;;;;;14.80;2.67;;;;;;;;;;5054764;28;20029;-69
2022/03/04 05:56:03;;;;;;;12.68;2.22;;;;;;;;;;5054700;28;20492;-71
2022/03/04 05:58:29;;;;;;;13.98;2.80;;;;;;;;;;5054693;28;20029;-69
2022/03/04 06:00:55;;;;;;;13.45;2.83;;;;;;;;;;5054712;28;20482;-70
2022/03/04 06:03:21;;;;;;;12.55;2.70;;;;;;;;;;5054622;28;20036;-67
2022/03/04 06:05:47;;;;;;;14.27;3.13;;;;;;;;;;5054203;28;20509;-68
2022/03/04 06:08:14;;;;;;;14.73;2.83;;;;;;;;;;5054749;28;20436;-70
2022/03/04 06:10:40;;;;;;;14.68;4.07;;;;;;;;;;5054513;28;20024;-68
2022/03/04 06:13:07;;;;;;;18.52;5.07;;;;;;;;;;5054368;28;20029;-67
2022/03/04 06:15:33;;;;;;;11.88;2.75;;;;;;;;;;5054390;28;20028;-68
2022/03/04 06:17:59;;;;;;;16.05;3.22;;;;;;;;;;5054624;28;20032;-68
2022/03/04 06:20:25;;;;;;;13.50;2.80;;;;;;;;;;5054257;28;20478;-69
2022/03/04 06:22:51;;;;;;;9.93;2.80;;;;;;;;;;5054290;28;20032;-71
2022/03/04 06:25:17;;;;;;;15.75;4.10;;;;;;;;;;5054182;28;20029;-69
2022/03/04 06:27:57;;;;;;;11.13;2.97;;;;;;;;;;5054415;28;20052;-69
2022/03/04 06:30:23;;;;;;;10.20;2.25;;;;;;;;;;5054149;28;20053;-68
2022/03/04 06:32:50;;;;;;;9.75;2.78;;;;;;;;;;5053985;28;20028;-69
2022/03/04 06:35:16;;;;;;;17.50;5.95;;;;;;;;;;5053975;28;20025;-68
2022/03/04 06:37:42;;;;;;;21.10;8.18;;;;;;;;;;5054202;28;20055;-69
2022/03/04 06:40:08;;;;;;;18.58;7.75;;;;;;;;;;5054179;28;20029;-70
2022/03/04 06:42:35;;;;;;;22.85;9.25;;;;;;;;;;5054121;28;20095;-67
2022/03/04 06:45:01;;;;;;;16.98;10.07;;;;;;;;;;5053851;28;20083;-70
2022/03/04 06:47:27;;;;;;;24.33;8.05;;;;;;;;;;5054304;28;20037;-66
2022/03/04 06:49:53;;;;;;;10.80;3.40;;;;;;;;;;5053781;28;20444;-68
2022/03/04 06:52:21;;;;;;;18.55;4.32;;;;;;;;;;5053597;28;20029;-70
2022/03/04 06:54:48;;;;;;;10.02;3.03;;;;;;;;;;5035694;28;20031;-67
2022/03/04 06:57:14;;;;;;;10.85;3.00;;;;;;;;;;5053660;28;20025;-68
2022/03/04 06:59:40;;;;;;;13.88;3.88;;;;;;;;;;5053581;28;20028;-70
2022/03/04 07:02:06;;;;;;;12.32;3.08;;;;;;;;;;5053575;28;20025;-70
2022/03/04 07:04:32;;;;;;;14.18;3.15;;;;;;;;;;5053358;28;20128;-71
2022/03/04 07:06:58;;;;;;;14.52;3.00;;;;;;;;;;5053486;28;20029;-70
2022/03/04 07:09:24;;;;;;;9.68;3.13;;;;;;;;;;5053689;28;20100;-70
2022/03/04 07:11:51;;;;;;;13.55;3.35;;;;;;;;;;5053626;28;20155;-68
2022/03/04 07:14:17;;;;;;;13.65;4.25;;;;;;;;;;5053362;28;20489;-69
2022/03/04 07:16:43;;;;;;;15.32;3.30;;;;;;;;;;5053330;28;20021;-68
2022/03/04 07:19:09;;;;;;;11.38;3.90;;;;;;;;;;5053540;28;20017;-67
2022/03/04 07:21:35;;;;;;;18.13;4.72;;;;;;;;;;5053249;28;20050;-68
2022/03/04 07:24:01;;;;;;;24.80;4.75;;;;;;;;;;5053225;28;20490;-69
2022/03/04 07:26:27;;;;;;;19.48;5.22;;;;;;;;;;5053514;28;20083;-68
2022/03/04 07:28:53;;;;;;;17.77;3.78;;;;;;;;;;5053156;28;20017;-69
2022/03/04 07:31:19;;;;;;;20.48;4.55;;;;;;;;;;5053458;28;20025;-69
2022/03/04 07:33:45;;;;;;;15.13;4.25;;;;;;;;;;5053318;28;20112;-68
2022/03/04 07:36:11;;;;;;;14.43;4.68;;;;;;;;;;5035206;28;20393;-69
2022/03/04 07:38:37;;;;;;;22.52;4.22;;;;;;;;;;5053044;28;20079;-69
2022/03/04 07:41:03;;;;;;;16.67;3.97;;;;;;;;;;5053117;28;20083;-69
2022/03/04 07:43:29;;;;;;;15.38;3.63;;;;;;;;;;5053058;28;20025;-69
2022/03/04 07:45:55;;;;;;;13.23;2.78;;;;;;;;;;5053026;28;20519;-67
2022/03/04 07:48:21;;;;;;;9.57;3.33;;;;;;;;;;5053047;28;20104;-67
2022/03/04 07:50:47;;;;;;;11.20;3.03;;;;;;;;;;5053298;28;20118;-67
2022/03/04 07:53:13;;;;;;;13.77;3.20;;;;;;;;;;5052931;28;20156;-67
2022/03/04 07:55:40;;;;;;;12.73;2.97;;;;;;;;;;5052831;28;20481;-66
2022/03/04 07:58:06;;;;;;;12.45;3.00;;;;;;;;;;5035021;28;20389;-68
2022/03/04 08:00:32;;;;;;;10.50;2.38;;;;;;;;;;5052859;28;20021;-67
2022/03/04 08:02:59;;;;;;;12.70;3.03;;;;;;;;;;5054082;28;20040;-68
2022/03/04 08:05:25;;;;;;;13.57;2.95;;;;;;;;;;5056694;28;20055;-69
2022/03/04 08:07:51;;;;;;;10.30;2.75;;;;;;;;;;5057369;28;20024;-68
2022/03/04 08:10:17;;;;;;;11.27;3.05;;;;;;;;;;5056805;28;20040;-68
2022/03/04 08:12:43;;;;;;;11.93;3.00;;;;;;;;;;5056666;28;20056;-68
2022/03/04 08:15:10;;;;;;;11.30;3.13;;;;;;;;;;5056465;28;20025;-69
2022/03/04 08:17:37;;;;;;;15.05;3.75;;;;;;;;;;5056881;28;20075;-66
2022/03/04 08:20:03;;;;;;;11.93;3.40;;;;;;;;;;5056592;28;20096;-68
2022/03/04 08:22:30;;;;;;;16.67;3.17;;;;;;;;;;5057112;28;20021;-68
2022/03/04 08:24:56;;;;;;;13.70;2.97;;;;;;;;;;5056780;28;20044;-68
2022/03/04 08:27:22;;;;;;;12.00;3.25;;;;;;;;;;5056740;28;20033;-68
2022/03/04 08:29:48;;;;;;;11.75;3.35;;;;;;;;;;5056413;28;20090;-69
2022/03/04 08:32:14;;;;;;;10.65;2.97;;;;;;;;;;5056882;28;20116;-69
2022/03/04 08:34:40;;;;;;;10.65;3.00;;;;;;;;;;5056324;28;20082;-68
2022/03/04 08:37:06;;;;;;;11.38;2.88;;;;;;;;;;5056273;28;20544;-66
2022/03/04 08:39:32;;;;;;;13.38;3.30;;;;;;;;;;5056196;28;20100;-66
2022/03/04 08:41:58;;;;;;;15.45;3.22;;;;;;;;;;5056401;28;20055;-67
2022/03/04 08:44:24;;;;;;;13.55;2.88;;;;;;;;;;5056121;28;20079;-69
2022/03/04 08:46:50;;;;;;;15.65;3.65;;;;;;;;;;5056134;28;20444;-66
2022/03/04 08:49:19;;;;;;;10.90;2.28;;;;;;;;;;5056041;28;20033;-68
2022/03/04 08:51:45;;;;;;;9.40;2.58;;;;;;;;;;5055969;28;20445;-68
2022/03/04 08:54:11;;;;;;;10.18;2.50;;;;;;;;;;5055890;28;20031;-68
2022/03/04 08:56:37;;;;;;;12.07;3.15;;;;;;;;;;5055903;28;20020;-67
2022/03/04 08:59:04;;;;;;;7.07;2.30;;;;;;;;;;5056121;28;20025;-70
2022/03/04 09:01:30;;;;;;;11.45;2.22;;;;;;;;;;5055780;28;20413;-68
2022/03/04 09:03:56;;;;;;;7.82;2.30;;;;;;;;;;5055437;28;20025;-69
2022/03/04 09:06:22;;;;;;;9.55;2.42;;;;;;;;;;5055707;28;20406;-70
2022/03/04 09:08:48;;;;;;;7.07;1.70;;;;;;;;;;5055599;28;20488;-68
2022/03/04 09:11:14;;;;;;;13.88;2.45;;;;;;;;;;5055632;28;20028;-70
2022/03/04 09:13:40;;;;;;;11.00;2.45;;;;;;;;;;5055107;28;20086;-71
2022/03/04 09:16:06;;;;;;;10.45;2.00;;;;;;;;;;5054788;28;20151;-70
2022/03/04 09:18:32;;;;;;;10.15;2.35;;;;;;;;;;5056126;28;20029;-72
2022/03/04 09:20:58;;;;;;;10.05;2.30;;;;;;;;;;5055766;28;20044;-70
2022/03/04 09:23:24;;;;;;;11.45;2.10;;;;;;;;;;5055408;28;20051;-74
2022/03/04 09:25:52;;;;;;;6.70;1.90;;;;;;;;;;5055442;28;20029;-69
2022/03/04 09:28:18;;;;;;;6.40;2.00;;;;;;;;;;5055607;28;20094;-71
2022/03/04 09:30:44;;;;;;;7.05;2.03;;;;;;;;;;5055285;28;20393;-69
2022/03/04 09:33:11;;;;;;;9.40;2.20;;;;;;;;;;5055166;28;20029;-70
2022/03/04 09:35:37;;;;;;;8.40;2.08;;;;;;;;;;5055374;28;20021;-71
2022/03/04 09:38:03;;;;;;;4.97;1.52;;;;;;;;;;5055291;28;20025;-69
2022/03/04 09:40:31;;;;;;;7.22;1.75;;;;;;;;;;5055032;28;20017;-69
2022/03/04 09:42:57;;;;;;;9.38;1.92;;;;;;;;;;5055090;28;20066;-67
2022/03/04 09:45:23;;;;;;;7.97;1.92;;;;;;;;;;5055285;28;20025;-66
2022/03/04 09:47:49;;;;;;;6.38;1.45;;;;;;;;;;5055236;28;20366;-70
2022/03/04 09:50:16;;;;;;;6.63;1.50;;;;;;;;;;5055207;28;20055;-70
2022/03/04 09:52:42;;;;;;;6.63;1.85;;;;;;;;;;5055089;28;20032;-69
2022/03/04 09:55:09;;;;;;;4.65;1.58;;;;;;;;;;5054753;28;20027;-70
2022/03/04 09:57:35;;;;;;;7.38;1.70;;;;;;;;;;5055354;28;20104;-70
2022/03/04 10:00:01;;;;;;;10.27;2.58;;;;;;;;;;5054735;28;20017;-70
2022/03/04 10:02:32;;;;;;;6.38;2.00;;;;;;;;;;5055186;28;20033;-70
2022/03/04 10:04:59;;;;;;;6.32;1.42;;;;;;;;;;5054456;28;20052;-70
2022/03/04 10:07:26;;;;;;;6.25;1.65;;;;;;;;;;5055137;28;20033;-69
2022/03/04 10:09:52;;;;;;;6.65;1.48;;;;;;;;;;5054538;28;20025;-70
2022/03/04 10:12:20;;;;;;;7.97;2.30;;;;;;;;;;5036573;28;20033;-68
2022/03/04 10:15:00;;;;;;;6.50;1.70;;;;;;;;;;5054413;28;20064;-68
2022/03/04 10:17:26;;;;;;;6.15;1.80;;;;;;;;;;5054394;28;20032;-67
2022/03/04 10:19:59;;;;;;;9.68;2.05;;;;;;;;;;5054648;28;20055;-67
2022/03/04 10:22:42;;;;;;;9.90;2.22;;;;;;;;;;5054587;28;20029;-68
2022/03/04 10:25:14;;;;;;;6.20;1.73;;;;;;;;;;5054453;28;20048;-68
2022/03/04 10:27:40;;;;;;;6.05;1.77;;;;;;;;;;5054486;28;20366;-68
2022/03/04 10:30:06;;;;;;;5.20;2.03;;;;;;;;;;5054168;28;20075;-68
2022/03/04 10:32:33;;;;;;;6.85;1.50;;;;;;;;;;5053986;28;20136;-70
2022/03/04 10:35:01;;;;;;;4.97;1.67;;;;;;;;;;5054125;28;20025;-69
2022/03/04 10:37:43;;;;;;;6.80;1.70;;;;;;;;;;5054040;28;20032;-66
2022/03/04 10:40:19;;;;;;;6.03;1.23;;;;;;;;;;5054614;28;20096;-68
2022/03/04 10:42:52;;;;;;;5.35;1.70;;;;;;;;;;5054212;28;20539;-71
2022/03/04 10:45:27;;;;;;;7.30;1.50;;;;;;;;;;5054142;28;20025;-70
2022/03/04 10:47:57;;;;;;;6.43;1.30;;;;;;;;;;5054087;28;20111;-71
2022/03/04 10:50:26;;;;;;;6.80;1.40;;;;;;;;;;5053748;28;20025;-66
2022/03/04 10:52:56;;;;;;;6.70;1.80;;;;;;;;;;5053951;28;20032;-68
2022/03/04 10:55:31;;;;;;;5.30;1.80;;;;;;;;;;5053727;28;20013;-69
2022/03/04 10:57:57;;;;;;;7.85;2.08;;;;;;;;;;5053892;28;20028;-69
2022/03/04 11:00:25;;;;;;;4.88;1.40;;;;;;;;;;5053609;28;20052;-69
2022/03/04 11:02:52;;;;;;;7.13;1.30;;;;;;;;;;5053591;28;20033;-68
2022/03/04 11:05:18;;;;;;;4.95;1.55;;;;;;;;;;5053327;28;20434;-69
2022/03/04 11:07:45;;;;;;;6.13;1.55;;;;;;;;;;5053483;28;20029;-68
2022/03/04 11:10:11;;;;;;;7.22;1.50;;;;;;;;;;5053980;28;20022;-68
2022/03/04 11:12:40;;;;;;;6.05;1.50;;;;;;;;;;5054166;28;20021;-68
2022/03/04 11:15:06;;;;;;;7.10;1.48;;;;;;;;;;5053433;28;20482;-68
2022/03/04 11:17:32;;;;;;;7.47;1.45;;;;;;;;;;5053668;28;20389;-68
2022/03/04 11:19:58;;;;;;;5.40;1.80;;;;;;;;;;5053308;28;20021;-67
2022/03/04 11:22:24;;;;;;;4.20;1.30;;;;;;;;;;5053271;28;20029;-67
2022/03/04 11:24:51;;;;;;;7.38;1.48;;;;;;;;;;5053636;28;20029;-69
2022/03/04 11:27:19;;;;;;;4.18;1.50;;;;;;;;;;5053531;28;20083;-68
2022/03/04 11:29:45;;;;;;;3.60;1.35;;;;;;;;;;5053241;28;20485;-67
2022/03/04 11:32:11;;;;;;;10.95;2.65;;;;;;;;;;5053444;28;20079;-68
2022/03/04 11:34:41;;;;;;;4.78;1.60;;;;;;;;;;5053160;28;20029;-69
2022/03/04 11:37:18;;;;;;;8.75;1.92;;;;;;;;;;5052886;28;20021;-68
2022/03/04 11:40:00;;;;;;;6.20;1.40;;;;;;;;;;5053409;28;20021;-68
2022/03/04 11:42:28;;;;;;;3.53;1.30;;;;;;;;;;5053136;28;20515;-66
2022/03/04 11:44:54;;;;;;;7.07;1.88;;;;;;;;;;5053012;28;20062;-67
2022/03/04 11:47:20;;;;;;;6.22;1.52;;;;;;;;;;5052996;28;20029;-69
2022/03/04 11:49:47;;;;;;;4.28;1.40;;;;;;;;;;5053023;28;20112;-68
2022/03/04 11:52:21;;;;;;;6.38;1.58;;;;;;;;;;5052952;28;20063;-69
2022/03/04 11:54:51;;;;;;;6.43;1.92;;;;;;;;;;5034902;28;20112;-67
2022/03/04 11:57:18;;;;;;;4.93;1.38;;;;;;;;;;5053243;28;20055;-69
2022/03/04 11:59:56;;;;;;;5.63;1.60;;;;;;;;;;5053205;28;20027;-67
2022/03/04 12:02:42;;;;;;;9.65;1.50;;;;;;;;;;5053466;28;20067;-69
2022/03/04 12:05:28;;;;;;;7.93;1.67;;;;;;;;;;5037592;28;20051;-69
2022/03/04 12:07:57;;;;;;;4.47;1.70;;;;;;;;;;5073464;28;20021;-68
2022/03/04 12:10:27;;;;;;;10.35;1.83;;;;;;;;;;5072864;28;20050;-67
2022/03/04 12:12:59;;;;;;;9.38;1.80;;;;;;;;;;5072767;28;20037;-68
2022/03/04 12:15:26;;;;;;;8.40;2.05;;;;;;;;;;5072821;28;20025;-68
2022/03/04 12:17:52;;;;;;;10.23;1.50;;;;;;;;;;5073074;28;20017;-69
2022/03/04 12:20:30;;;;;;;6.97;1.42;;;;;;;;;;5072788;28;20035;-68
2022/03/04 12:22:57;;;;;;;7.50;1.85;;;;;;;;;;5072963;28;20056;-67
2022/03/04 12:25:23;;;;;;;8.05;1.30;;;;;;;;;;5072985;28;20489;-67
2022/03/04 12:27:54;;;;;;;4.47;1.33;;;;;;;;;;5072639;28;20032;-69
2022/03/04 12:30:21;;;;;;;4.75;1.50;;;;;;;;;;5073020;28;20033;-68
2022/03/04 12:32:52;;;;;;;9.43;1.92;;;;;;;;;;5073133;28;20108;-69
2022/03/04 12:35:18;;;;;;;6.28;1.80;;;;;;;;;;5072610;28;20035;-68
2022/03/04 12:37:45;;;;;;;5.72;1.55;;;;;;;;;;5072871;28;20021;-67
2022/03/04 12:40:11;;;;;;;8.85;1.70;;;;;;;;;;5072815;28;20021;-67
2022/03/04 12:42:37;;;;;;;7.00;1.67;;;;;;;;;;5073107;28;20147;-68
2022/03/04 12:45:10;;;;;;;9.30;2.05;;;;;;;;;;5072799;28;20028;-67
2022/03/04 12:47:36;;;;;;;6.57;2.00;;;;;;;;;;5073024;28;20029;-68
2022/03/04 12:50:03;;;;;;;6.35;1.48;;;;;;;;;;5075183;28;20116;-68
2022/03/04 12:52:29;;;;;;;5.03;1.65;;;;;;;;;;5075963;28;20020;-66
2022/03/04 12:55:01;;;;;;;6.03;1.63;;;;;;;;;;5076117;28;20035;-69
2022/03/04 12:57:27;;;;;;;6.63;1.85;;;;;;;;;;5076265;28;20078;-69
2022/03/04 12:59:54;;;;;;;7.15;1.73;;;;;;;;;;5076127;28;20029;-68
2022/03/04 13:02:20;;;;;;;10.60;2.60;;;;;;;;;;5076183;28;20099;-68
2022/03/04 13:04:58;;;;;;;6.70;1.40;;;;;;;;;;5067492;28;20520;-68
2022/03/04 13:07:24;;;;;;;8.10;1.90;;;;;;;;;;5055757;28;20025;-69
2022/03/04 13:09:51;;;;;;;7.28;1.80;;;;;;;;;;5055636;28;20367;-68
2022/03/04 13:12:20;;;;;;;7.38;1.60;;;;;;;;;;5055590;28;20104;-69
2022/03/04 13:14:46;;;;;;;6.97;1.67;;;;;;;;;;5055587;28;20392;-67
2022/03/04 13:17:12;;;;;;;8.40;1.75;;;;;;;;;;5055826;28;20477;-68
2022/03/04 13:19:43;;;;;;;4.18;1.60;;;;;;;;;;5055497;28;20036;-67
2022/03/04 13:22:12;;;;;;;5.28;1.80;;;;;;;;;;5055583;28;20028;-68
2022/03/04 13:24:43;;;;;;;10.73;1.75;;;;;;;;;;5055406;28;20048;-67
2022/03/04 13:27:13;;;;;;;9.38;1.90;;;;;;;;;;5055648;28;20044;-67
2022/03/04 13:29:49;;;;;;;9.55;2.38;;;;;;;;;;5055634;28;20029;-67
2022/03/04 13:32:22;;;;;;;8.63;1.90;;;;;;;;;;5055196;28;20167;-68
2022/03/04 13:34:57;;;;;;;7.10;2.42;;;;;;;;;;5055534;28;20025;-69
2022/03/04 13:37:27;;;;;;;7.30;1.85;;;;;;;;;;5055481;28;20389;-69
2022/03/04 13:40:16;;;;;;;4.32;1.77;;;;;;;;;;5055440;28;20043;-68
2022/03/04 13:42:52;;;;;;;5.68;1.50;;;;;;;;;;5042379;28;20041;-68
2022/03/04 13:45:41;;;;;;;6.15;2.38;;;;;;;;;;5055630;28;20033;-68
2022/03/04 13:48:07;;;;;;;6.28;1.73;;;;;;;;;;5055587;28;20025;-68
2022/03/04 13:50:34;;;;;;;9.60;1.63;;;;;;;;;;5055224;28;20029;-69
2022/03/04 13:53:03;;;;;;;6.25;1.50;;;;;;;;;;5055093;28;20106;-67
2022/03/04 13:55:30;;;;;;;5.75;1.45;;;;;;;;;;5054952;28;20024;-68
2022/03/04 13:58:01;;;;;;;5.00;1.50;;;;;;;;;;5054797;28;20021;-69
2022/03/04 14:00:33;;;;;;;6.28;1.40;;;;;;;;;;5054771;28;20075;-69
2022/03/04 14:03:03;;;;;;;9.13;1.63;;;;;;;;;;5055030;28;20079;-68
2022/03/04 14:05:30;;;;;;;7.82;1.80;;;;;;;;;;5054357;28;20049;-67
2022/03/04 14:08:05;;;;;;;5.55;1.95;;;;;;;;;;5054596;28;20033;-69
2022/03/04 14:10:32;;;;;;;4.90;1.80;;;;;;;;;;5055100;28;20104;-68
2022/03/04 14:13:00;;;;;;;7.78;1.80;;;;;;;;;;5054441;28;20032;-66
2022/03/04 14:15:26;;;;;;;7.45;1.52;;;;;;;;;;5054456;28;20070;-68
2022/03/04 14:17:55;;;;;;;7.40;1.92;;;;;;;;;;5054599;28;20099;-68
2022/03/04 14:20:21;;;;;;;8.32;2.22;;;;;;;;;;5054599;28;20188;-68
2022/03/04 14:22:47;;;;;;;7.35;1.77;;;;;;;;;;5054849;28;20029;-67
2022/03/04 14:25:13;;;;;;;7.78;2.05;;;;;;;;;;5054790;28;20381;-66
2022/03/04 14:27:42;;;;;;;7.30;2.00;;;;;;;;;;5054193;28;20035;-69
2022/03/04 14:30:09;;;;;;;9.93;1.92;;;;;;;;;;5054492;28;20485;-68
2022/03/04 14:32:35;;;;;;;10.48;1.80;;;;;;;;;;5036132;28;20408;-68
2022/03/04 14:35:01;;;;;;;8.38;1.95;;;;;;;;;;5054289;28;20059;-68
2022/03/04 14:37:27;;;;;;;7.28;2.38;;;;;;;;;;5054036;28;20081;-67